ADDS METAR Data INFO
IDs: Format: Raw Decoded Include TAF

Data at: 1158 UTC 21 Jun 2018

KHFJ 211130Z AUTO 24005KT 5SM BR SCT005 SCT008 OVC017 21/21 A2986 RMK AO2
KHFJ 211110Z AUTO 27005KT 5SM BR OVC005 20/20 A2987 RMK AO2
KHFJ 211050Z AUTO 23005KT 4SM BR BKN005 OVC008 20/20 A2986 RMK AO2
KHFJ 211030Z AUTO 22006KT 5SM BR BKN005 BKN008 20/20 A2986 RMK AO2
KHFJ 211010Z AUTO 20006KT 5SM BR BKN005 OVC010 20/20 A2985 RMK AO2
KHFJ 210950Z AUTO 24007KT 5SM BR OVC005 21/21 A2986 RMK AO2
KHFJ 210930Z AUTO 27006KT 5SM BR OVC005 21/21 A2987 RMK AO2
KHFJ 210910Z AUTO 22009KT 7SM OVC005 20/20 A2985 RMK AO2
KHFJ 210850Z AUTO 23006KT 7SM OVC005 20/20 A2986 RMK AO2
KHFJ 210830Z AUTO 22007KT 7SM OVC005 20/20 A2984 RMK AO2
KHFJ 210810Z AUTO 23008KT 7SM OVC005 20/20 A2986 RMK AO2
KHFJ 210750Z AUTO 23008KT 10SM OVC005 20/20 A2986 RMK AO2
KHFJ 210730Z AUTO 23006KT 10SM OVC005 20/20 A2986 RMK AO2
KHFJ 210710Z AUTO 23007KT 7SM OVC005 20/20 A2987 RMK AO2
KHFJ 210650Z AUTO 23006KT 10SM OVC005 20/20 A2986 RMK AO2
KHFJ 210630Z AUTO 21008KT 10SM OVC005 20/20 A2986 RMK AO2
KHFJ 210610Z AUTO 22006KT 10SM OVC005 21/21 A2987 RMK AO2
KHFJ 210550Z AUTO 22007KT 10SM OVC005 21/21 A2987 RMK AO2
KHFJ 210530Z AUTO 23006KT 10SM OVC005 21/21 A2988 RMK AO2
KHFJ 210510Z AUTO 22009KT 10SM OVC005 21/21 A2987 RMK AO2
KHFJ 210450Z AUTO 23006KT 10SM OVC005 21/21 A2988 RMK AO2
KHFJ 210430Z AUTO 22008KT 10SM OVC005 21/21 A2987 RMK AO2
KHFJ 210410Z AUTO 23009KT 10SM OVC005 21/21 A2988 RMK AO2
KHFJ 210350Z AUTO 22009KT 10SM OVC005 21/21 A2988 RMK AO2
KHFJ 210330Z AUTO 22006KT 10SM OVC005 21/21 A2989 RMK AO2
KHFJ 210310Z AUTO 21005KT 10SM BKN007 21/21 A2989 RMK AO2
KHFJ 210250Z AUTO 20004KT 10SM CLR 21/21 A2988 RMK AO2
KHFJ 210230Z AUTO 19005KT 10SM CLR 21/21 A2987 RMK AO2
KHFJ 210210Z AUTO 21005KT 10SM CLR 21/21 A2987 RMK AO2
KHFJ 210150Z AUTO 21003KT 10SM CLR 21/21 A2987 RMK AO2
KHFJ 210130Z AUTO 00000KT 10SM CLR 21/21 A2987 RMK AO2
KHFJ 210110Z AUTO 00000KT 10SM CLR 21/21 A2987 RMK AO2
KHFJ 210050Z AUTO 00000KT 10SM CLR 21/21 A2987 RMK AO2
KHFJ 210030Z AUTO 28003KT 10SM CLR 21/21 A2987 RMK AO2
KHFJ 210010Z AUTO 00000KT 10SM SCT060 SCT070 SCT090 21/21 A2986 RMK AO2
KHFJ 202350Z AUTO 17003KT 10SM BKN060 BKN070 BKN090 21/20 A2987 RMK AO2
KHFJ 202330Z AUTO 00000KT 10SM BKN060 OVC070 21/20 A2987 RMK AO2
KHFJ 202310Z AUTO 17007KT 10SM BKN060 BKN100 BKN120 21/20 A2987 RMK AO2
KHFJ 202250Z AUTO 15006KT 10SM -RA SCT100 BKN120 21/21 A2987 RMK AO2 LTG DSNT S P0006
KHFJ 202230Z AUTO 00000KT 7SM -RA OVC110 21/20 A2988 RMK AO2 LTG DSNT NE S AND SW P0004
KHFJ 202210Z AUTO 00000KT 10SM -TSRA SCT020 SCT047 OVC110 21/21 A2988 RMK AO2 LTG DSNT N NE AND SW P0001
KHFJ 202150Z AUTO 04003KT 3SM VCTSRA SCT017 BKN025 OVC075 21/20 A2988 RMK AO2 LTG DSNT W AND NW P0007
KHFJ 202130Z AUTO 27006KT 10SM VCTSRA OVC017 23/22 A2990 RMK AO2 LTG DSNT SW THRU N
KHFJ 202110Z AUTO 20009KT 10SM BKN015 BKN070 OVC095 23/21 A2989 RMK AO2 LTG DSNT W AND NW
KHFJ 202050Z AUTO 22010KT 10SM SCT015 SCT070 BKN110 24/21 A2988 RMK AO2 LTG DSNT W AND NW
KHFJ 202030Z AUTO 17012G16KT 10SM SCT013 SCT120 25/21 A2986 RMK AO2 LTG DSNT W AND NW
KHFJ 202010Z AUTO 20012KT 10SM BKN013 26/21 A2986 RMK AO2 LTG DSNT W AND NW
KHFJ 201950Z AUTO 18014G20KT 10SM SCT013 25/21 A2986 RMK AO2 LTG DSNT ALQS
KHFJ 201930Z AUTO 17015G20KT 10SM BKN013 25/21 A2986 RMK AO2 LTG DSNT N AND NW
KHFJ 201910Z AUTO 17015G21KT 10SM BKN013 OVC020 26/21 A2987 RMK AO2 LTG DSNT E AND W
KHFJ 201850Z AUTO 17017G23KT 10SM SCT013 SCT020 BKN027 26/22 A2988 RMK AO2
KHFJ 201830Z AUTO 17017G21KT 10SM BKN025 BKN041 BKN050 26/22 A2989 RMK AO2
KHFJ 201810Z AUTO 21008KT 10SM SCT033 BKN040 OVC070 27/21 A2989 RMK AO2
KHFJ 201750Z AUTO 22009KT 10SM SCT027 BKN032 OVC038 26/21 A2990 RMK AO2 LTG DSNT SE
KHFJ 201730Z AUTO 23009KT 10SM VCTS BKN029 OVC036 26/20 A2990 RMK AO2
KHFJ 201710Z AUTO 21010G15KT 10SM BKN028 BKN036 BKN120 27/20 A2990 RMK AO2 LTG DSNT S
KHFJ 201650Z AUTO 22010KT 10SM BKN028 BKN033 BKN120 28/20 A2989 RMK AO2
KHFJ 201630Z AUTO 20009KT 10SM BKN030 BKN040 28/20 A2990 RMK AO2
KHFJ 201610Z AUTO 20010G14KT 10SM BKN028 OVC034 28/20 A2991 RMK AO2
KHFJ 201550Z AUTO 20009G14KT 10SM OVC026 28/20 A2991 RMK AO2
KHFJ 201530Z AUTO 24007KT 10SM BKN026 27/20 A2992 RMK AO2
KHFJ 201510Z AUTO 23011KT 10SM SCT024 SCT060 27/20 A2992 RMK AO2
KHFJ 201450Z AUTO 22010KT 10SM SCT024 SCT060 27/20 A2992 RMK AO2
KHFJ 201430Z AUTO 21013G17KT 10SM SCT024 26/20 A2993 RMK AO2
KHFJ 201410Z AUTO 22009G16KT 10SM CLR 26/20 A2993 RMK AO2
KHFJ 201350Z AUTO 21012KT 10SM SCT080 SCT110 26/20 A2993 RMK AO2
KHFJ 201330Z AUTO 21008KT 10SM SCT080 OVC100 23/20 A2994 RMK AO2
KHFJ 201310Z AUTO 20008KT 10SM SCT070 SCT080 OVC100 23/20 A2994 RMK AO2
KHFJ 201250Z AUTO 21008KT 10SM SCT070 OVC090 23/20 A2995 RMK AO2
KHFJ 201230Z AUTO 21006KT 10SM OVC090 22/20 A2995 RMK AO2
KHFJ 201210Z AUTO 21007KT 10SM OVC100 22/20 A2995 RMK AO2
KHFJ 201150Z AUTO 19007KT 10SM OVC090 21/19 A2994 RMK AO2
KHFJ 201130Z AUTO 18005KT 10SM SCT090 21/19 A2995 RMK AO2
KHFJ 201110Z AUTO 18005KT 10SM CLR 21/19 A2994 RMK AO2
KHFJ 201050Z AUTO 18004KT 10SM CLR 21/19 A2994 RMK AO2
KHFJ 201030Z AUTO 17005KT 10SM CLR 21/19 A2994 RMK AO2
KHFJ 201010Z AUTO 17006KT 10SM SCT075 21/19 A2994 RMK AO2
KHFJ 200950Z AUTO 17006KT 10SM BKN075 21/19 A2994 RMK AO2
KHFJ 200930Z AUTO 17005KT 10SM BKN075 21/19 A2995 RMK AO2
KHFJ 200910Z AUTO 00000KT 10SM SCT075 21/19 A2995 RMK AO2
KHFJ 200850Z AUTO 16003KT 10SM CLR 21/19 A2994 RMK AO2
KHFJ 200830Z AUTO 17004KT 10SM CLR 21/19 A2993 RMK AO2
KHFJ 200810Z AUTO 19003KT 10SM CLR 22/19 A2993 RMK AO2
KHFJ 200750Z AUTO 18005KT 10SM CLR 22/19 A2992 RMK AO2
KHFJ 200730Z AUTO 17006KT 10SM CLR 22/19 A2992 RMK AO2
KHFJ 200710Z AUTO 16006KT 10SM CLR 22/20 A2993 RMK AO2
KHFJ 200650Z AUTO 15006KT 10SM CLR 22/20 A2993 RMK AO2
KHFJ 200630Z AUTO 14005KT 10SM CLR 22/20 A2993 RMK AO2
KHFJ 200610Z AUTO 14005KT 10SM CLR 22/20 A2995 RMK AO2
KHFJ 200550Z AUTO 14005KT 10SM CLR 22/20 A2996 RMK AO2
KHFJ 200530Z AUTO 15005KT 10SM CLR 22/20 A2996 RMK AO2
KHFJ 200510Z AUTO 13004KT 10SM CLR 22/20 A2996 RMK AO2
KHFJ 200450Z AUTO 13004KT 10SM CLR 22/20 A2996 RMK AO2
KHFJ 200430Z AUTO 14003KT 10SM CLR 22/20 A2997 RMK AO2
KHFJ 200410Z AUTO 00000KT 10SM CLR 23/20 A2997 RMK AO2
KHFJ 200350Z AUTO 00000KT 10SM CLR 23/20 A2996 RMK AO2
KHFJ 200330Z AUTO 16003KT 10SM CLR 24/20 A2996 RMK AO2
KHFJ 200310Z AUTO 17005KT 10SM CLR 24/20 A2994 RMK AO2
KHFJ 200250Z AUTO 17004KT 10SM CLR 25/20 A2994 RMK AO2
KHFJ 200230Z AUTO 16004KT 10SM CLR 25/21 A2993 RMK AO2
KHFJ 200210Z AUTO 18007KT 10SM CLR 25/21 A2992 RMK AO2
KHFJ 200150Z AUTO 18009KT 10SM CLR 26/21 A2992 RMK AO2
KHFJ 200130Z AUTO 17007KT 10SM CLR 26/20 A2991 RMK AO2
KHFJ 200110Z AUTO 17006KT 10SM CLR 26/20 A2991 RMK AO2
KHFJ 200050Z AUTO 19008KT 10SM CLR 27/20 A2993 RMK AO2
KHFJ 200030Z AUTO 22007KT 10SM CLR 28/20 A2994 RMK AO2
KHFJ 200010Z AUTO 21006KT 10SM CLR 28/20 A2995 RMK AO2 LTG DSNT E